sensor_id;sensor_type;location;lat;lon;timestamp;pressure;altitude;pressure_sealevel;temperature;humidity
15884;BME280;8040;50.254;10.960;2023-04-03T00:00:59;99075.69;;;5.54;62.70
15884;BME280;8040;50.254;10.960;2023-04-03T00:03:24;99114.13;;;5.82;63.19
15884;BME280;8040;50.254;10.960;2023-04-03T00:05:50;99116.31;;;5.85;62.76
15884;BME280;8040;50.254;10.960;2023-04-03T00:08:16;99119.56;;;5.87;61.49
15884;BME280;8040;50.254;10.960;2023-04-03T00:10:42;99169.59;;;6.21;61.61
15884;BME280;8040;50.254;10.960;2023-04-03T00:13:08;99143.50;;;6.05;62.38
15884;BME280;8040;50.254;10.960;2023-04-03T00:15:34;99158.69;;;6.11;61.94
15884;BME280;8040;50.254;10.960;2023-04-03T00:18:00;99077.25;;;5.66;61.89
15884;BME280;8040;50.254;10.960;2023-04-03T00:20:26;99114.75;;;5.89;61.61
15884;BME280;8040;50.254;10.960;2023-04-03T00:22:53;99115.25;;;5.86;60.85
15884;BME280;8040;50.254;10.960;2023-04-03T00:25:18;99134.63;;;6.05;60.63
15884;BME280;8040;50.254;10.960;2023-04-03T00:27:44;99119.16;;;5.95;60.45
15884;BME280;8040;50.254;10.960;2023-04-03T00:30:13;99138.63;;;6.02;60.01
15884;BME280;8040;50.254;10.960;2023-04-03T00:32:40;99138.00;;;5.95;60.12
15884;BME280;8040;50.254;10.960;2023-04-03T00:35:05;99096.81;;;5.78;59.99
15884;BME280;8040;50.254;10.960;2023-04-03T00:37:31;99139.44;;;6.03;59.60
15884;BME280;8040;50.254;10.960;2023-04-03T00:39:56;99174.22;;;6.26;60.36
15884;BME280;8040;50.254;10.960;2023-04-03T00:42:22;99167.34;;;6.13;60.01
15884;BME280;8040;50.254;10.960;2023-04-03T00:47:16;99146.78;;;5.91;59.59
15884;BME280;8040;50.254;10.960;2023-04-03T00:49:43;99109.78;;;5.65;59.88
15884;BME280;8040;50.254;10.960;2023-04-03T00:52:12;99139.16;;;5.83;60.21
15884;BME280;8040;50.254;10.960;2023-04-03T00:54:40;99152.94;;;5.70;59.83
15884;BME280;8040;50.254;10.960;2023-04-03T00:57:07;99100.19;;;5.19;60.20
15884;BME280;8040;50.254;10.960;2023-04-03T00:59:35;99184.31;;;5.48;60.82
15884;BME280;8040;50.254;10.960;2023-04-03T01:02:04;99156.75;;;5.24;60.80
15884;BME280;8040;50.254;10.960;2023-04-03T01:04:40;99156.09;;;5.17;60.54
15884;BME280;8040;50.254;10.960;2023-04-03T01:07:09;99111.88;;;4.80;60.91
15884;BME280;8040;50.254;10.960;2023-04-03T01:09:36;99169.75;;;4.99;60.58
15884;BME280;8040;50.254;10.960;2023-04-03T01:12:16;99183.47;;;5.14;60.62
15884;BME280;8040;50.254;10.960;2023-04-03T01:14:43;99167.78;;;4.95;60.57
15884;BME280;8040;50.254;10.960;2023-04-03T01:17:41;99193.56;;;5.07;60.71
15884;BME280;8040;50.254;10.960;2023-04-03T01:20:41;99154.38;;;4.83;60.82
15884;BME280;8040;50.254;10.960;2023-04-03T01:25:49;99195.59;;;5.17;60.09
15884;BME280;8040;50.254;10.960;2023-04-03T01:28:19;99172.78;;;5.03;60.39
15884;BME280;8040;50.254;10.960;2023-04-03T01:30:50;99170.59;;;5.00;60.36
15884;BME280;8040;50.254;10.960;2023-04-03T01:33:18;99178.38;;;5.01;60.14
15884;BME280;8040;50.254;10.960;2023-04-03T01:35:44;99164.50;;;4.93;60.00
15884;BME280;8040;50.254;10.960;2023-04-03T01:38:09;99143.59;;;4.67;60.49
15884;BME280;8040;50.254;10.960;2023-04-03T01:40:35;99121.34;;;4.55;60.09
15884;BME280;8040;50.254;10.960;2023-04-03T01:43:01;99182.19;;;4.89;60.48
15884;BME280;8040;50.254;10.960;2023-04-03T01:45:26;99120.72;;;4.36;60.39
15884;BME280;8040;50.254;10.960;2023-04-03T01:47:51;99168.97;;;4.59;60.53
15884;BME280;8040;50.254;10.960;2023-04-03T01:50:17;99191.63;;;4.63;60.36
15884;BME280;8040;50.254;10.960;2023-04-03T01:52:42;99166.09;;;4.49;60.25
15884;BME280;8040;50.254;10.960;2023-04-03T01:55:08;99124.59;;;4.17;60.33
15884;BME280;8040;50.254;10.960;2023-04-03T01:57:33;99175.44;;;4.47;60.48
15884;BME280;8040;50.254;10.960;2023-04-03T01:59:59;99112.88;;;3.95;60.79
15884;BME280;8040;50.254;10.960;2023-04-03T02:02:25;99182.72;;;4.35;60.79
15884;BME280;8040;50.254;10.960;2023-04-03T02:04:50;99168.25;;;4.24;60.86
15884;BME280;8040;50.254;10.960;2023-04-03T02:07:16;99177.25;;;4.18;60.67
15884;BME280;8040;50.254;10.960;2023-04-03T02:09:41;99198.00;;;4.34;61.11
15884;BME280;8040;50.254;10.960;2023-04-03T02:12:07;99199.16;;;4.38;61.23
15884;BME280;8040;50.254;10.960;2023-04-03T02:14:32;99151.94;;;4.14;61.02
15884;BME280;8040;50.254;10.960;2023-04-03T02:16:58;99124.84;;;4.04;60.91
15884;BME280;8040;50.254;10.960;2023-04-03T02:19:25;99178.06;;;4.30;60.65
15884;BME280;8040;50.254;10.960;2023-04-03T02:21:51;99177.34;;;4.35;60.70
15884;BME280;8040;50.254;10.960;2023-04-03T02:24:16;99166.03;;;4.21;60.85
15884;BME280;8040;50.254;10.960;2023-04-03T02:26:42;99165.66;;;4.41;60.61
15884;BME280;8040;50.254;10.960;2023-04-03T02:29:08;99189.25;;;4.39;60.40
15884;BME280;8040;50.254;10.960;2023-04-03T02:31:33;99154.59;;;4.14;60.76
15884;BME280;8040;50.254;10.960;2023-04-03T02:33:59;99170.22;;;4.29;60.62
15884;BME280;8040;50.254;10.960;2023-04-03T02:36:24;99133.41;;;4.01;60.71
15884;BME280;8040;50.254;10.960;2023-04-03T02:38:50;99184.25;;;4.19;60.81
15884;BME280;8040;50.254;10.960;2023-04-03T02:41:15;99210.38;;;4.35;60.52
15884;BME280;8040;50.254;10.960;2023-04-03T02:43:41;99156.03;;;3.94;61.16
15884;BME280;8040;50.254;10.960;2023-04-03T02:46:06;99174.47;;;4.13;61.31
15884;BME280;8040;50.254;10.960;2023-04-03T02:48:32;99138.53;;;3.91;60.85
15884;BME280;8040;50.254;10.960;2023-04-03T02:50:58;99172.59;;;4.02;60.75
15884;BME280;8040;50.254;10.960;2023-04-03T02:53:23;99193.59;;;4.17;60.89
15884;BME280;8040;50.254;10.960;2023-04-03T02:55:49;99212.38;;;4.28;60.62
15884;BME280;8040;50.254;10.960;2023-04-03T02:58:15;99191.63;;;4.12;61.00
15884;BME280;8040;50.254;10.960;2023-04-03T03:00:40;99195.00;;;4.19;61.08
15884;BME280;8040;50.254;10.960;2023-04-03T03:03:06;99144.00;;;3.96;61.11
15884;BME280;8040;50.254;10.960;2023-04-03T03:05:32;99189.63;;;4.19;61.38
15884;BME280;8040;50.254;10.960;2023-04-03T03:07:57;99157.91;;;4.05;60.93
15884;BME280;8040;50.254;10.960;2023-04-03T03:10:23;99164.78;;;4.12;61.22
15884;BME280;8040;50.254;10.960;2023-04-03T03:12:49;99147.28;;;3.87;60.95
15884;BME280;8040;50.254;10.960;2023-04-03T03:15:15;99180.28;;;4.10;61.14
15884;BME280;8040;50.254;10.960;2023-04-03T03:17:40;99190.09;;;4.16;61.29
15884;BME280;8040;50.254;10.960;2023-04-03T03:20:07;99189.84;;;4.18;61.28
15884;BME280;8040;50.254;10.960;2023-04-03T03:22:33;99170.28;;;3.94;60.67
15884;BME280;8040;50.254;10.960;2023-04-03T03:24:59;99218.47;;;4.12;61.21
15884;BME280;8040;50.254;10.960;2023-04-03T03:27:25;99190.00;;;3.88;61.26
15884;BME280;8040;50.254;10.960;2023-04-03T03:29:52;99089.34;;;3.28;61.16
15884;BME280;8040;50.254;10.960;2023-04-03T03:32:18;99219.75;;;3.98;61.50
15884;BME280;8040;50.254;10.960;2023-04-03T03:34:43;99199.44;;;4.02;61.58
15884;BME280;8040;50.254;10.960;2023-04-03T03:37:09;99132.25;;;3.63;61.34
15884;BME280;8040;50.254;10.960;2023-04-03T03:39:34;99191.28;;;3.97;60.77
15884;BME280;8040;50.254;10.960;2023-04-03T03:42:00;99192.19;;;3.91;61.21
15884;BME280;8040;50.254;10.960;2023-04-03T03:44:25;99194.69;;;3.81;61.46
15884;BME280;8040;50.254;10.960;2023-04-03T03:46:51;99190.81;;;3.77;61.56
15884;BME280;8040;50.254;10.960;2023-04-03T03:49:16;99208.41;;;3.73;61.12
15884;BME280;8040;50.254;10.960;2023-04-03T03:51:42;99155.69;;;3.44;61.85
15884;BME280;8040;50.254;10.960;2023-04-03T03:54:07;99196.41;;;3.64;62.14
15884;BME280;8040;50.254;10.960;2023-04-03T03:56:33;99167.94;;;3.40;61.74
15884;BME280;8040;50.254;10.960;2023-04-03T03:58:58;99205.59;;;3.68;61.33
15884;BME280;8040;50.254;10.960;2023-04-03T04:01:24;99183.44;;;3.61;62.33
15884;BME280;8040;50.254;10.960;2023-04-03T04:03:50;99139.00;;;3.31;61.81
15884;BME280;8040;50.254;10.960;2023-04-03T04:06:15;99217.16;;;3.69;61.96
15884;BME280;8040;50.254;10.960;2023-04-03T04:08:41;99188.50;;;3.69;61.67
15884;BME280;8040;50.254;10.960;2023-04-03T04:11:07;99170.97;;;3.55;62.20
15884;BME280;8040;50.254;10.960;2023-04-03T04:13:32;99210.19;;;4.02;61.71
15884;BME280;8040;50.254;10.960;2023-04-03T04:15:58;99169.34;;;3.77;61.71
15884;BME280;8040;50.254;10.960;2023-04-03T04:18:23;99202.25;;;3.84;61.37
15884;BME280;8040;50.254;10.960;2023-04-03T04:20:49;99205.63;;;3.80;61.47
15884;BME280;8040;50.254;10.960;2023-04-03T04:23:15;99229.66;;;3.86;61.10
15884;BME280;8040;50.254;10.960;2023-04-03T04:25:41;99211.44;;;3.77;61.49
15884;BME280;8040;50.254;10.960;2023-04-03T04:28:06;99203.97;;;3.56;61.14
15884;BME280;8040;50.254;10.960;2023-04-03T04:30:32;99205.00;;;3.43;62.04
15884;BME280;8040;50.254;10.960;2023-04-03T04:32:57;99203.84;;;3.51;62.32
15884;BME280;8040;50.254;10.960;2023-04-03T04:35:23;99202.94;;;3.57;62.44
15884;BME280;8040;50.254;10.960;2023-04-03T04:37:48;99208.50;;;3.55;61.65
15884;BME280;8040;50.254;10.960;2023-04-03T04:40:14;99173.63;;;3.32;61.88
15884;BME280;8040;50.254;10.960;2023-04-03T04:42:39;99218.53;;;3.48;61.64
15884;BME280;8040;50.254;10.960;2023-04-03T04:45:05;99249.00;;;3.65;61.51
15884;BME280;8040;50.254;10.960;2023-04-03T04:47:31;99237.44;;;3.53;61.55
15884;BME280;8040;50.254;10.960;2023-04-03T04:49:56;99209.28;;;3.33;61.78
15884;BME280;8040;50.254;10.960;2023-04-03T04:52:22;99258.56;;;3.61;61.87
15884;BME280;8040;50.254;10.960;2023-04-03T04:54:47;99204.50;;;3.35;61.58
15884;BME280;8040;50.254;10.960;2023-04-03T04:57:13;99195.31;;;3.31;61.35
15884;BME280;8040;50.254;10.960;2023-04-03T04:59:38;99240.09;;;3.42;60.78
15884;BME280;8040;50.254;10.960;2023-04-03T05:02:04;99249.09;;;3.47;61.04
15884;BME280;8040;50.254;10.960;2023-04-03T05:04:29;99250.34;;;3.33;61.10
15884;BME280;8040;50.254;10.960;2023-04-03T05:06:54;99191.78;;;2.89;61.15
15884;BME280;8040;50.254;10.960;2023-04-03T05:09:20;99232.97;;;3.06;61.14
15884;BME280;8040;50.254;10.960;2023-04-03T05:11:46;99166.69;;;2.72;61.43
15884;BME280;8040;50.254;10.960;2023-04-03T05:14:11;99234.94;;;2.99;61.36
15884;BME280;8040;50.254;10.960;2023-04-03T05:16:37;99254.47;;;3.18;61.30
15884;BME280;8040;50.254;10.960;2023-04-03T05:19:03;99240.53;;;2.80;61.39
15884;BME280;8040;50.254;10.960;2023-04-03T05:21:28;99245.47;;;2.83;61.39
15884;BME280;8040;50.254;10.960;2023-04-03T05:23:58;99286.00;;;3.04;61.38
15884;BME280;8040;50.254;10.960;2023-04-03T05:26:24;99250.81;;;2.83;61.55
15884;BME280;8040;50.254;10.960;2023-04-03T05:28:51;99283.31;;;3.04;61.47
15884;BME280;8040;50.254;10.960;2023-04-03T05:31:16;99295.75;;;3.17;61.38
15884;BME280;8040;50.254;10.960;2023-04-03T05:33:42;99202.13;;;2.56;60.61
15884;BME280;8040;50.254;10.960;2023-04-03T05:36:08;99251.38;;;2.73;60.80
15884;BME280;8040;50.254;10.960;2023-04-03T05:38:33;99274.56;;;2.97;60.97
15884;BME280;8040;50.254;10.960;2023-04-03T05:40:59;99252.50;;;2.95;61.15
15884;BME280;8040;50.254;10.960;2023-04-03T05:43:25;99230.66;;;2.80;60.66
15884;BME280;8040;50.254;10.960;2023-04-03T05:45:51;99269.34;;;3.02;60.45
15884;BME280;8040;50.254;10.960;2023-04-03T05:48:17;99256.94;;;3.01;60.12
15884;BME280;8040;50.254;10.960;2023-04-03T05:50:42;99203.94;;;2.74;59.98
15884;BME280;8040;50.254;10.960;2023-04-03T05:53:21;99254.28;;;3.01;59.23
15884;BME280;8040;50.254;10.960;2023-04-03T05:55:47;99265.75;;;3.08;58.78
15884;BME280;8040;50.254;10.960;2023-04-03T05:58:13;99305.00;;;3.32;59.91
15884;BME280;8040;50.254;10.960;2023-04-03T06:00:41;99259.06;;;2.99;58.99
15884;BME280;8040;50.254;10.960;2023-04-03T06:03:06;99264.25;;;2.94;59.54
15884;BME280;8040;50.254;10.960;2023-04-03T06:05:32;99266.38;;;2.92;59.78
15884;BME280;8040;50.254;10.960;2023-04-03T06:07:58;99309.97;;;2.99;59.97
15884;BME280;8040;50.254;10.960;2023-04-03T06:10:23;99278.34;;;2.90;60.27
15884;BME280;8040;50.254;10.960;2023-04-03T06:12:49;99290.16;;;3.00;59.99
15884;BME280;8040;50.254;10.960;2023-04-03T06:15:15;99267.94;;;3.00;59.64
15884;BME280;8040;50.254;10.960;2023-04-03T06:17:42;99296.50;;;3.06;59.39
15884;BME280;8040;50.254;10.960;2023-04-03T06:20:08;99237.22;;;2.66;59.54
15884;BME280;8040;50.254;10.960;2023-04-03T06:22:34;99332.34;;;3.23;59.12
15884;BME280;8040;50.254;10.960;2023-04-03T06:25:00;99271.00;;;2.85;59.61
15884;BME280;8040;50.254;10.960;2023-04-03T06:27:26;99304.06;;;3.09;59.20
15884;BME280;8040;50.254;10.960;2023-04-03T06:29:52;99330.81;;;3.15;59.67
15884;BME280;8040;50.254;10.960;2023-04-03T06:32:17;99343.00;;;3.29;59.45
15884;BME280;8040;50.254;10.960;2023-04-03T06:34:43;99338.00;;;3.33;59.93
15884;BME280;8040;50.254;10.960;2023-04-03T06:37:19;99229.84;;;2.62;59.33
15884;BME280;8040;50.254;10.960;2023-04-03T06:39:45;99291.31;;;3.22;59.22
15884;BME280;8040;50.254;10.960;2023-04-03T06:42:10;99338.97;;;3.38;58.66
15884;BME280;8040;50.254;10.960;2023-04-03T06:44:36;99289.13;;;3.01;58.16
15884;BME280;8040;50.254;10.960;2023-04-03T06:47:01;99313.88;;;2.85;58.34
15884;BME280;8040;50.254;10.960;2023-04-03T06:49:27;99315.69;;;3.03;58.56
15884;BME280;8040;50.254;10.960;2023-04-03T06:51:54;99308.50;;;3.03;58.41
15884;BME280;8040;50.254;10.960;2023-04-03T06:54:19;99370.34;;;3.49;58.23
15884;BME280;8040;50.254;10.960;2023-04-03T06:56:45;99352.81;;;3.35;57.91
15884;BME280;8040;50.254;10.960;2023-04-03T06:59:12;99375.59;;;3.44;57.77
15884;BME280;8040;50.254;10.960;2023-04-03T07:01:39;99343.22;;;3.10;57.66
15884;BME280;8040;50.254;10.960;2023-04-03T07:04:04;99324.28;;;2.93;58.31
15884;BME280;8040;50.254;10.960;2023-04-03T07:06:30;99388.50;;;3.18;57.92
15884;BME280;8040;50.254;10.960;2023-04-03T07:08:57;99288.56;;;2.63;57.63
15884;BME280;8040;50.254;10.960;2023-04-03T07:11:23;99361.34;;;3.14;57.99
15884;BME280;8040;50.254;10.960;2023-04-03T07:13:48;99307.16;;;2.76;57.48
15884;BME280;8040;50.254;10.960;2023-04-03T07:16:14;99383.34;;;3.34;57.23
15884;BME280;8040;50.254;10.960;2023-04-03T07:18:39;99365.94;;;3.25;57.16
15884;BME280;8040;50.254;10.960;2023-04-03T07:21:05;99353.94;;;3.10;57.09
15884;BME280;8040;50.254;10.960;2023-04-03T07:23:31;99359.25;;;3.16;57.29
15884;BME280;8040;50.254;10.960;2023-04-03T07:25:57;99336.88;;;3.40;56.90
15884;BME280;8040;50.254;10.960;2023-04-03T07:28:23;99383.84;;;3.61;56.01
15884;BME280;8040;50.254;10.960;2023-04-03T07:30:58;99345.63;;;3.47;55.97
15884;BME280;8040;50.254;10.960;2023-04-03T07:33:24;99360.69;;;3.48;56.07
15884;BME280;8040;50.254;10.960;2023-04-03T07:35:50;99395.28;;;3.68;56.01
15884;BME280;8040;50.254;10.960;2023-04-03T07:38:16;99348.47;;;3.52;55.68
15884;BME280;8040;50.254;10.960;2023-04-03T07:40:49;99367.06;;;3.65;55.41
15884;BME280;8040;50.254;10.960;2023-04-03T07:43:16;99384.16;;;3.82;55.42
15884;BME280;8040;50.254;10.960;2023-04-03T07:45:42;99315.44;;;3.52;55.40
15884;BME280;8040;50.254;10.960;2023-04-03T07:48:09;99379.28;;;3.91;54.53
15884;BME280;8040;50.254;10.960;2023-04-03T07:50:35;99394.81;;;4.00;54.35
15884;BME280;8040;50.254;10.960;2023-04-03T07:53:01;99399.34;;;4.00;54.37
15884;BME280;8040;50.254;10.960;2023-04-03T07:55:27;99349.56;;;3.74;53.99
15884;BME280;8040;50.254;10.960;2023-04-03T07:57:52;99388.88;;;3.69;54.64
15884;BME280;8040;50.254;10.960;2023-04-03T08:00:20;99362.19;;;3.44;54.10
15884;BME280;8040;50.254;10.960;2023-04-03T08:02:45;99344.56;;;3.37;55.13
15884;BME280;8040;50.254;10.960;2023-04-03T08:05:21;99391.16;;;3.83;54.28
15884;BME280;8040;50.254;10.960;2023-04-03T08:07:47;99290.28;;;3.23;53.97
15884;BME280;8040;50.254;10.960;2023-04-03T08:10:14;99377.91;;;3.70;52.81
15884;BME280;8040;50.254;10.960;2023-04-03T08:12:39;99414.09;;;3.79;52.03
15884;BME280;8040;50.254;10.960;2023-04-03T08:15:06;99324.84;;;3.13;51.86
15884;BME280;8040;50.254;10.960;2023-04-03T08:17:32;99367.59;;;3.26;51.89
15884;BME280;8040;50.254;10.960;2023-04-03T08:19:58;99429.25;;;3.44;51.53
15884;BME280;8040;50.254;10.960;2023-04-03T08:22:24;99353.75;;;2.93;51.54
15884;BME280;8040;50.254;10.960;2023-04-03T08:24:49;99420.38;;;3.44;50.99
15884;BME280;8040;50.254;10.960;2023-04-03T08:27:15;99398.59;;;3.52;51.15
15884;BME280;8040;50.254;10.960;2023-04-03T08:29:41;99419.66;;;3.96;50.37
15884;BME280;8040;50.254;10.960;2023-04-03T08:32:06;99404.44;;;3.78;50.63
15884;BME280;8040;50.254;10.960;2023-04-03T08:34:32;99389.19;;;3.90;49.80
15884;BME280;8040;50.254;10.960;2023-04-03T08:37:02;99356.47;;;3.70;49.60
15884;BME280;8040;50.254;10.960;2023-04-03T08:39:27;99413.28;;;4.08;49.56
15884;BME280;8040;50.254;10.960;2023-04-03T08:41:55;99421.88;;;4.40;49.59
15884;BME280;8040;50.254;10.960;2023-04-03T08:52:14;99447.25;;;4.14;45.11
15884;BME280;8040;50.254;10.960;2023-04-03T08:57:15;99434.22;;;3.88;44.79
15884;BME280;8040;50.254;10.960;2023-04-03T08:59:41;99439.16;;;3.73;44.77
15884;BME280;8040;50.254;10.960;2023-04-03T09:02:34;99455.03;;;3.75;44.84
15884;BME280;8040;50.254;10.960;2023-04-03T09:05:14;99438.22;;;3.97;46.14
15884;BME280;8040;50.254;10.960;2023-04-03T09:07:47;99420.31;;;4.21;46.22
15884;BME280;8040;50.254;10.960;2023-04-03T09:10:14;99435.66;;;4.55;45.45
15884;BME280;8040;50.254;10.960;2023-04-03T09:12:49;99410.78;;;4.36;45.78
15884;BME280;8040;50.254;10.960;2023-04-03T09:15:22;99368.03;;;3.82;46.21
15884;BME280;8040;50.254;10.960;2023-04-03T09:20:40;99470.13;;;4.05;46.66
15884;BME280;8040;50.254;10.960;2023-04-03T09:23:36;99381.03;;;3.38;47.06
15884;BME280;8040;50.254;10.960;2023-04-03T09:26:06;99360.56;;;3.07;46.56
15884;BME280;8040;50.254;10.960;2023-04-03T09:28:38;99439.66;;;3.52;46.86
15884;BME280;8040;50.254;10.960;2023-04-03T09:31:19;99437.34;;;3.56;46.65
15884;BME280;8040;50.254;10.960;2023-04-03T09:33:45;99410.38;;;3.33;45.83
15884;BME280;8040;50.254;10.960;2023-04-03T09:36:12;99456.78;;;3.69;46.02
15884;BME280;8040;50.254;10.960;2023-04-03T09:38:37;99444.84;;;3.65;46.48
15884;BME280;8040;50.254;10.960;2023-04-03T09:41:13;99392.63;;;3.20;46.59
15884;BME280;8040;50.254;10.960;2023-04-03T09:43:51;99408.19;;;3.59;46.16
15884;BME280;8040;50.254;10.960;2023-04-03T09:46:25;99436.03;;;3.76;46.19
15884;BME280;8040;50.254;10.960;2023-04-03T09:49:02;99435.22;;;3.76;45.03
15884;BME280;8040;50.254;10.960;2023-04-03T09:51:28;99455.22;;;3.91;44.61
15884;BME280;8040;50.254;10.960;2023-04-03T09:53:55;99456.00;;;3.80;43.52
15884;BME280;8040;50.254;10.960;2023-04-03T09:56:28;99376.41;;;3.45;44.08
15884;BME280;8040;50.254;10.960;2023-04-03T10:01:31;99389.81;;;3.74;43.84
15884;BME280;8040;50.254;10.960;2023-04-03T10:04:04;99431.38;;;4.13;43.90
15884;BME280;8040;50.254;10.960;2023-04-03T10:06:32;99380.91;;;3.92;44.30
15884;BME280;8040;50.254;10.960;2023-04-03T10:09:04;99387.63;;;3.83;43.18
15884;BME280;8040;50.254;10.960;2023-04-03T10:11:30;99408.81;;;4.02;43.31
15884;BME280;8040;50.254;10.960;2023-04-03T10:14:01;99370.44;;;3.72;43.91
15884;BME280;8040;50.254;10.960;2023-04-03T10:16:49;99409.97;;;3.95;43.05
15884;BME280;8040;50.254;10.960;2023-04-03T10:19:32;99435.59;;;4.09;42.41
15884;BME280;8040;50.254;10.960;2023-04-03T10:25:03;99421.75;;;3.94;42.40
15884;BME280;8040;50.254;10.960;2023-04-03T10:27:43;99390.31;;;3.83;43.22
15884;BME280;8040;50.254;10.960;2023-04-03T10:33:19;99409.03;;;3.89;42.61
15884;BME280;8040;50.254;10.960;2023-04-03T10:44:57;99336.91;;;3.81;41.34
15884;BME280;8040;50.254;10.960;2023-04-03T10:47:34;99357.94;;;4.07;40.56
15884;BME280;8040;50.254;10.960;2023-04-03T10:50:29;99397.47;;;4.64;40.40
15884;BME280;8040;50.254;10.960;2023-04-03T10:53:14;99387.19;;;4.38;40.88
15884;BME280;8040;50.254;10.960;2023-04-03T10:55:58;99407.97;;;4.31;41.08
15884;BME280;8040;50.254;10.960;2023-04-03T10:58:38;99404.22;;;4.32;41.43
15884;BME280;8040;50.254;10.960;2023-04-03T11:01:11;99381.06;;;4.20;40.93
15884;BME280;8040;50.254;10.960;2023-04-03T11:03:41;99334.50;;;4.03;40.96
15884;BME280;8040;50.254;10.960;2023-04-03T11:06:12;99330.63;;;4.10;40.88
15884;BME280;8040;50.254;10.960;2023-04-03T11:08:50;99395.13;;;4.56;40.44
15884;BME280;8040;50.254;10.960;2023-04-03T11:11:22;99328.56;;;4.12;41.30
15884;BME280;8040;50.254;10.960;2023-04-03T11:14:05;99382.03;;;4.71;41.09
15884;BME280;8040;50.254;10.960;2023-04-03T11:16:43;99323.06;;;4.53;39.80
15884;BME280;8040;50.254;10.960;2023-04-03T11:19:20;99345.00;;;4.85;39.97
15884;BME280;8040;50.254;10.960;2023-04-03T11:22:13;99342.09;;;4.86;38.02
15884;BME280;8040;50.254;10.960;2023-04-03T11:24:43;99343.22;;;4.90;38.57
15884;BME280;8040;50.254;10.960;2023-04-03T11:27:22;99322.94;;;4.83;38.83
15884;BME280;8040;50.254;10.960;2023-04-03T11:29:49;99345.56;;;4.98;39.23
15884;BME280;8040;50.254;10.960;2023-04-03T11:34:53;99275.41;;;4.60;38.91
15884;BME280;8040;50.254;10.960;2023-04-03T11:37:39;99349.16;;;5.04;38.79
15884;BME280;8040;50.254;10.960;2023-04-03T11:40:20;99342.50;;;5.06;37.77
15884;BME280;8040;50.254;10.960;2023-04-03T11:42:48;99335.72;;;5.15;38.76
15884;BME280;8040;50.254;10.960;2023-04-03T11:45:17;99329.00;;;5.18;38.25
15884;BME280;8040;50.254;10.960;2023-04-03T11:53:27;99350.72;;;5.67;39.21
15884;BME280;8040;50.254;10.960;2023-04-03T11:55:55;99292.13;;;5.30;38.85
15884;BME280;8040;50.254;10.960;2023-04-03T11:58:34;99338.81;;;5.35;37.47
15884;BME280;8040;50.254;10.960;2023-04-03T12:01:10;99341.50;;;5.35;37.51
15884;BME280;8040;50.254;10.960;2023-04-03T12:11:14;99321.31;;;5.49;37.18
15884;BME280;8040;50.254;10.960;2023-04-03T12:16:28;99276.00;;;5.30;36.72
15884;BME280;8040;50.254;10.960;2023-04-03T12:24:27;99304.75;;;5.85;36.05
15884;BME280;8040;50.254;10.960;2023-04-03T12:45:51;99223.75;;;5.70;36.64
15884;BME280;8040;50.254;10.960;2023-04-03T12:48:21;99267.88;;;6.19;37.27
15884;BME280;8040;50.254;10.960;2023-04-03T12:50:48;99297.25;;;6.37;34.54
15884;BME280;8040;50.254;10.960;2023-04-03T12:53:21;99237.28;;;6.08;34.77
15884;BME280;8040;50.254;10.960;2023-04-03T12:55:56;99238.50;;;6.17;35.96
15884;BME280;8040;50.254;10.960;2023-04-03T12:58:25;99292.69;;;6.37;36.05
15884;BME280;8040;50.254;10.960;2023-04-03T13:01:23;99273.22;;;6.52;35.69
15884;BME280;8040;50.254;10.960;2023-04-03T13:03:57;99194.03;;;5.98;36.49
15884;BME280;8040;50.254;10.960;2023-04-03T13:06:24;99264.75;;;6.27;36.59
15884;BME280;8040;50.254;10.960;2023-04-03T13:08:59;99290.47;;;6.34;35.74
15884;BME280;8040;50.254;10.960;2023-04-03T13:11:30;99236.22;;;6.09;35.53
15884;BME280;8040;50.254;10.960;2023-04-03T13:14:00;99169.91;;;5.70;35.40
15884;BME280;8040;50.254;10.960;2023-04-03T13:16:28;99256.63;;;6.22;35.80
15884;BME280;8040;50.254;10.960;2023-04-03T13:18:55;99228.41;;;5.91;35.24
15884;BME280;8040;50.254;10.960;2023-04-03T13:21:24;99246.03;;;5.99;35.24
15884;BME280;8040;50.254;10.960;2023-04-03T13:23:54;99290.25;;;6.19;35.57
15884;BME280;8040;50.254;10.960;2023-04-03T13:26:22;99251.88;;;6.12;35.04
15884;BME280;8040;50.254;10.960;2023-04-03T13:28:49;99225.28;;;6.16;34.20
15884;BME280;8040;50.254;10.960;2023-04-03T13:31:21;99227.31;;;6.25;34.73
15884;BME280;8040;50.254;10.960;2023-04-03T13:33:58;99282.34;;;6.67;35.22
15884;BME280;8040;50.254;10.960;2023-04-03T13:36:56;99245.72;;;6.71;34.75
15884;BME280;8040;50.254;10.960;2023-04-03T13:39:32;99271.00;;;6.87;36.03
15884;BME280;8040;50.254;10.960;2023-04-03T13:42:01;99215.50;;;6.69;35.59
15884;BME280;8040;50.254;10.960;2023-04-03T13:44:36;99267.53;;;6.91;35.17
15884;BME280;8040;50.254;10.960;2023-04-03T13:49:41;99226.44;;;6.41;36.10
15884;BME280;8040;50.254;10.960;2023-04-03T13:54:55;99209.44;;;6.03;35.17
15884;BME280;8040;50.254;10.960;2023-04-03T13:57:21;99231.47;;;6.54;35.36
15884;BME280;8040;50.254;10.960;2023-04-03T13:59:46;99226.41;;;6.79;34.52
15884;BME280;8040;50.254;10.960;2023-04-03T14:02:34;99258.25;;;7.04;34.45
15884;BME280;8040;50.254;10.960;2023-04-03T14:05:01;99192.72;;;6.82;34.83
15884;BME280;8040;50.254;10.960;2023-04-03T14:07:29;99266.28;;;6.99;34.82
15884;BME280;8040;50.254;10.960;2023-04-03T14:09:56;99270.81;;;6.93;34.78
15884;BME280;8040;50.254;10.960;2023-04-03T14:12:33;99218.13;;;6.43;34.74
15884;BME280;8040;50.254;10.960;2023-04-03T14:15:16;99242.69;;;6.46;34.73
15884;BME280;8040;50.254;10.960;2023-04-03T14:17:42;99200.94;;;6.27;34.39
15884;BME280;8040;50.254;10.960;2023-04-03T14:20:20;99211.50;;;6.50;34.54
15884;BME280;8040;50.254;10.960;2023-04-03T14:22:47;99255.88;;;6.64;35.33
15884;BME280;8040;50.254;10.960;2023-04-03T14:25:14;99215.94;;;6.40;35.16
15884;BME280;8040;50.254;10.960;2023-04-03T14:27:46;99253.06;;;6.76;34.18
15884;BME280;8040;50.254;10.960;2023-04-03T14:32:47;99296.44;;;6.36;35.06
15884;BME280;8040;50.254;10.960;2023-04-03T14:35:14;99247.09;;;6.14;35.27
15884;BME280;8040;50.254;10.960;2023-04-03T14:37:40;99269.41;;;6.48;35.28
15884;BME280;8040;50.254;10.960;2023-04-03T14:40:08;99228.66;;;6.44;36.14
15884;BME280;8040;50.254;10.960;2023-04-03T14:42:36;99203.69;;;6.32;35.95
15884;BME280;8040;50.254;10.960;2023-04-03T14:45:06;99204.50;;;6.76;35.52